createdAt,value
2023-04-16T00:00:33.869Z,100272.50
2023-04-16T00:03:35.792Z,100291.91
2023-04-16T00:06:37.622Z,100299.56
2023-04-16T00:09:39.158Z,100289.75
2023-04-16T00:12:41.153Z,100269.47
2023-04-16T00:15:42.769Z,100282.25
2023-04-16T00:18:44.402Z,100269.13
2023-04-16T00:21:45.996Z,100280.50
2023-04-16T00:24:47.589Z,100267.03
2023-04-16T00:27:49.166Z,100282.25
2023-04-16T00:30:51.153Z,100269.25
2023-04-16T00:33:53.504Z,100254.03
2023-04-16T00:36:55.082Z,100278.63
2023-04-16T00:39:56.653Z,100275.25
2023-04-16T00:42:58.196Z,100282.53
2023-04-16T00:45:59.900Z,100294.25
2023-04-16T00:49:03.033Z,100285.56
2023-04-16T00:52:04.648Z,100293.19
2023-04-16T00:55:08.120Z,100303.31
2023-04-16T00:58:09.724Z,100299.44
2023-04-16T01:01:11.502Z,100296.81
2023-04-16T01:04:13.206Z,100300.25
2023-04-16T01:07:14.918Z,100298.78
2023-04-16T01:10:16.494Z,100305.28
2023-04-16T01:13:18.119Z,100302.75
2023-04-16T01:16:19.729Z,100308.28
2023-04-16T01:19:21.374Z,100311.44
2023-04-16T01:22:22.938Z,100314.78
2023-04-16T01:25:24.524Z,100322.25
2023-04-16T01:28:26.231Z,100319.06
2023-04-16T01:31:27.863Z,100324.72
2023-04-16T01:34:29.518Z,100323.38
2023-04-16T01:37:31.181Z,100315.97
2023-04-16T01:40:32.757Z,100308.88
2023-04-16T01:43:34.401Z,100310.66
2023-04-16T01:46:36.372Z,100317.53
2023-04-16T01:49:38.245Z,100320.53
2023-04-16T01:52:39.883Z,100309.22
2023-04-16T01:55:41.438Z,100323.44
2023-04-16T01:58:42.995Z,100281.22
2023-04-16T02:01:44.667Z,100294.84
2023-04-16T02:04:46.421Z,100313.97
2023-04-16T02:07:47.989Z,100315.97
2023-04-16T02:10:50.624Z,100306.16
2023-04-16T02:13:52.234Z,100317.75
2023-04-16T02:16:53.817Z,100318.75
2023-04-16T02:19:55.551Z,100293.22
2023-04-16T02:22:57.122Z,100324.81
2023-04-16T02:25:58.884Z,100337.69
2023-04-16T02:29:00.590Z,100323.22
2023-04-16T02:32:02.255Z,100285.66
2023-04-16T02:35:04.178Z,100316.50
2023-04-16T02:38:06.082Z,100317.03
2023-04-16T02:41:07.726Z,100315.97
2023-04-16T02:44:09.317Z,100321.66
2023-04-16T02:47:10.858Z,100327.81
2023-04-16T02:50:12.493Z,100324.28
2023-04-16T02:53:14.111Z,100303.41
2023-04-16T02:56:15.873Z,100344.94
2023-04-16T02:59:17.407Z,100308.66
2023-04-16T03:02:19.033Z,100311.66
2023-04-16T03:05:20.973Z,100362.00
2023-04-16T03:08:22.615Z,100341.13
2023-04-16T03:11:24.334Z,100357.66
2023-04-16T03:14:26.023Z,100353.03
2023-04-16T03:17:27.584Z,100340.38
2023-04-16T03:20:29.149Z,100330.94
2023-04-16T03:23:30.837Z,100363.22
2023-04-16T03:26:32.399Z,100361.78
2023-04-16T03:29:36.913Z,100366.19
2023-04-16T03:32:38.853Z,100348.84
2023-04-16T03:35:40.560Z,100366.50
2023-04-16T03:38:42.146Z,100377.72
2023-04-16T03:41:43.744Z,100355.66
2023-04-16T03:44:45.386Z,100366.63
2023-04-16T03:47:52.483Z,100384.53
2023-04-16T03:50:54.221Z,100389.78
2023-04-16T03:53:56.084Z,100386.25
2023-04-16T03:56:57.732Z,100386.72
2023-04-16T03:59:59.316Z,100400.56
2023-04-16T04:03:01.073Z,100403.19
2023-04-16T04:06:08.249Z,100390.97
2023-04-16T04:09:09.968Z,100401.63
2023-04-16T04:12:11.721Z,100400.78
2023-04-16T04:15:13.424Z,100408.13
2023-04-16T04:18:15.005Z,100396.94
2023-04-16T04:21:16.595Z,100387.53
2023-04-16T04:24:18.149Z,100406.44
2023-04-16T04:27:19.714Z,100409.56
2023-04-16T04:30:21.379Z,100417.19
2023-04-16T04:33:23.010Z,100414.22
2023-04-16T04:36:24.575Z,100404.53
2023-04-16T04:39:26.310Z,100413.50
2023-04-16T04:42:27.849Z,100409.19
2023-04-16T04:45:31.272Z,100422.34
2023-04-16T04:48:33.529Z,100419.88
2023-04-16T04:51:35.250Z,100417.97
2023-04-16T04:54:36.957Z,100428.13
2023-04-16T04:57:38.517Z,100426.22
2023-04-16T05:00:40.313Z,100433.50
2023-04-16T05:03:42.005Z,100430.75
2023-04-16T05:06:44.105Z,100412.75
2023-04-16T05:09:45.798Z,100418.38
2023-04-16T05:12:51.079Z,100405.13
2023-04-16T05:15:52.690Z,100423.63
2023-04-16T05:18:56.093Z,100429.59
2023-04-16T05:21:57.698Z,100433.66
2023-04-16T05:24:59.308Z,100432.72
2023-04-16T05:28:00.997Z,100425.44
2023-04-16T05:31:02.611Z,100429.50
2023-04-16T05:34:04.250Z,100419.59
2023-04-16T05:37:05.848Z,100430.19
2023-04-16T05:40:08.211Z,100422.47
2023-04-16T05:43:09.842Z,100416.72
2023-04-16T05:46:11.528Z,100424.00
2023-04-16T05:49:13.178Z,100421.72
2023-04-16T05:52:15.367Z,100429.22
2023-04-16T05:55:16.952Z,100425.63
2023-04-16T05:58:18.546Z,100414.34
2023-04-16T06:01:20.392Z,100410.97
2023-04-16T06:04:21.966Z,100425.66
2023-04-16T06:07:23.540Z,100433.19
2023-04-16T06:10:25.416Z,100438.09
2023-04-16T06:13:26.994Z,100447.28
2023-04-16T06:16:28.647Z,100432.25
2023-04-16T06:19:30.301Z,100434.50
2023-04-16T06:22:33.014Z,100444.53
2023-04-16T06:25:34.597Z,100444.28
2023-04-16T06:28:36.206Z,100441.06
2023-04-16T06:31:37.917Z,100440.22
2023-04-16T06:34:39.690Z,100441.84
2023-04-16T06:37:41.597Z,100417.59
2023-04-16T06:40:43.186Z,100435.97
2023-04-16T06:43:44.920Z,100421.78
2023-04-16T06:46:46.517Z,100426.91
2023-04-16T06:49:48.095Z,100427.38
2023-04-16T06:52:49.680Z,100425.06
2023-04-16T06:55:51.927Z,100436.81
2023-04-16T06:58:53.504Z,100444.63
2023-04-16T07:01:55.339Z,100440.25
2023-04-16T07:04:56.952Z,100447.88
2023-04-16T07:07:59.458Z,100434.84
2023-04-16T07:11:01.140Z,100456.94
2023-04-16T07:14:02.716Z,100450.13
2023-04-16T07:17:04.295Z,100448.31
2023-04-16T07:20:06.677Z,100449.97
2023-04-16T07:23:08.229Z,100453.75
2023-04-16T07:26:10.556Z,100468.34
2023-04-16T07:29:12.398Z,100478.19
2023-04-16T07:32:15.460Z,100476.91
2023-04-16T07:35:17.461Z,100471.91
2023-04-16T07:38:19.022Z,100487.22
2023-04-16T07:41:20.606Z,100483.59
2023-04-16T07:44:22.218Z,100472.94
2023-04-16T07:47:23.849Z,100490.56
2023-04-16T07:50:25.748Z,100474.69
2023-04-16T07:53:27.352Z,100477.47
2023-04-16T07:56:28.996Z,100474.66
2023-04-16T07:59:30.781Z,100472.09
2023-04-16T08:02:38.417Z,100488.41
2023-04-16T08:05:40.253Z,100498.16
2023-04-16T08:08:41.825Z,100488.41
2023-04-16T08:11:43.462Z,100499.00
2023-04-16T08:14:45.888Z,100498.22
2023-04-16T08:17:47.419Z,100499.00
2023-04-16T08:20:49.099Z,100491.53
2023-04-16T08:23:50.664Z,100519.16
2023-04-16T08:26:52.426Z,100508.50
2023-04-16T08:29:54.101Z,100491.09
2023-04-16T08:32:56.070Z,100491.16
2023-04-16T08:35:57.866Z,100482.06
2023-04-16T08:38:59.455Z,100500.91
2023-04-16T08:42:04.756Z,100496.75
2023-04-16T08:45:16.119Z,100506.06
2023-04-16T08:48:22.042Z,100502.41
2023-04-16T08:51:27.443Z,100493.75
2023-04-16T08:54:38.627Z,100484.22
2023-04-16T08:57:48.569Z,100503.72
2023-04-16T09:00:51.109Z,100513.63
2023-04-16T09:03:53.159Z,100503.84
2023-04-16T09:06:59.398Z,100510.44
2023-04-16T09:10:01.698Z,100498.25
2023-04-16T09:13:03.514Z,100506.88
2023-04-16T09:16:07.916Z,100483.25
2023-04-16T09:19:09.649Z,100494.47
2023-04-16T09:22:12.055Z,100488.53
2023-04-16T09:25:15.369Z,100499.16
2023-04-16T09:28:45.976Z,100492.28
2023-04-16T09:32:05.471Z,100496.38
2023-04-16T09:35:07.381Z,100484.53
2023-04-16T09:38:08.994Z,100491.13
2023-04-16T09:41:10.628Z,100495.97
2023-04-16T09:44:12.229Z,100472.28
2023-04-16T09:47:14.029Z,100492.03
2023-04-16T09:50:18.632Z,100469.00
2023-04-16T09:53:28.357Z,100502.34
2023-04-16T09:56:30.562Z,100482.09
2023-04-16T09:59:34.146Z,100501.75
2023-04-16T10:02:39.422Z,100500.06
2023-04-16T10:05:41.780Z,100484.97
2023-04-16T10:08:49.651Z,100493.91
2023-04-16T10:11:51.991Z,100490.41
2023-04-16T10:14:53.539Z,100469.47
2023-04-16T10:17:57.010Z,100484.47
2023-04-16T10:20:59.227Z,100485.84
2023-04-16T10:24:01.270Z,100476.09
2023-04-16T10:27:03.286Z,100463.66
2023-04-16T10:30:07.213Z,100479.13
2023-04-16T10:33:09.887Z,100452.06
2023-04-16T10:36:17.321Z,100468.53
2023-04-16T10:39:21.345Z,100458.31
2023-04-16T10:42:22.936Z,100458.97
2023-04-16T10:45:32.726Z,100468.97
2023-04-16T10:48:48.693Z,100467.53
2023-04-16T10:51:54.716Z,100462.03
2023-04-16T10:54:59.489Z,100463.28
2023-04-16T10:58:01.099Z,100457.22
2023-04-16T11:01:11.283Z,100450.09
2023-04-16T11:04:22.341Z,100460.53
2023-04-16T11:07:34.925Z,100454.97
2023-04-16T11:10:39.496Z,100439.66
2023-04-16T11:13:45.061Z,100448.38
2023-04-16T11:16:46.690Z,100450.69
2023-04-16T11:19:48.556Z,100451.88
2023-04-16T11:22:55.004Z,100452.13
2023-04-16T11:25:58.581Z,100430.06
2023-04-16T11:29:00.445Z,100455.59
2023-04-16T11:32:02.066Z,100430.63
2023-04-16T11:35:13.921Z,100441.34
2023-04-16T11:38:18.189Z,100447.81
2023-04-16T11:41:21.922Z,100441.63
2023-04-16T11:44:28.102Z,100443.84
2023-04-16T11:47:31.817Z,100448.81
2023-04-16T11:50:33.700Z,100428.31
2023-04-16T11:53:36.823Z,100443.28
2023-04-16T11:56:38.382Z,100443.47
2023-04-16T12:00:02.745Z,100430.56
2023-04-16T12:03:05.637Z,100435.81
2023-04-16T12:06:09.109Z,100436.28
2023-04-16T12:09:26.310Z,100432.16
2023-04-16T12:12:31.449Z,100429.03
2023-04-16T12:15:50.931Z,100436.13
2023-04-16T12:19:00.496Z,100434.06
2023-04-16T12:22:02.125Z,100431.59
2023-04-16T12:25:24.649Z,100423.56
2023-04-16T12:28:31.679Z,100408.47
2023-04-16T12:31:39.339Z,100424.75
2023-04-16T12:34:51.561Z,100409.09
2023-04-16T12:37:53.125Z,100416.53
2023-04-16T12:40:57.097Z,100415.66
2023-04-16T12:44:07.149Z,100408.78
2023-04-16T12:47:08.790Z,100395.06
2023-04-16T12:50:10.848Z,100406.44
2023-04-16T12:53:12.467Z,100393.47
2023-04-16T12:56:14.089Z,100399.66
2023-04-16T12:59:17.381Z,100396.13
2023-04-16T13:02:19.062Z,100388.25
2023-04-16T13:05:21.061Z,100392.81
2023-04-16T13:08:22.751Z,100398.31
2023-04-16T13:11:24.411Z,100382.88
2023-04-16T13:14:26.313Z,100387.16
2023-04-16T13:17:27.953Z,100375.41
2023-04-16T13:20:29.597Z,100370.13
2023-04-16T13:23:31.550Z,100371.84
2023-04-16T13:26:33.138Z,100379.69
2023-04-16T13:29:36.731Z,100369.31
2023-04-16T13:32:38.307Z,100365.16
2023-04-16T13:35:39.901Z,100333.78
2023-04-16T13:38:42.262Z,100353.69
2023-04-16T13:41:43.845Z,100366.94
2023-04-16T13:44:48.871Z,100355.59
2023-04-16T13:47:50.549Z,100362.03
2023-04-16T13:50:52.250Z,100371.41
2023-04-16T13:53:55.960Z,100352.06
2023-04-16T13:56:57.574Z,100353.84
2023-04-16T14:00:11.867Z,100364.66
2023-04-16T14:03:14.849Z,100364.22
2023-04-16T14:06:18.138Z,100354.81
2023-04-16T14:09:19.697Z,100364.00
2023-04-16T14:12:21.373Z,100346.34
2023-04-16T14:15:23.104Z,100341.09
2023-04-16T14:18:24.665Z,100360.81
2023-04-16T14:21:27.119Z,100361.84
2023-04-16T14:24:29.246Z,100358.63
2023-04-16T14:27:31.586Z,100356.50
2023-04-16T14:30:33.178Z,100336.72
2023-04-16T14:33:34.778Z,100353.50
2023-04-16T14:36:37.004Z,100348.09
2023-04-16T14:39:39.314Z,100354.31
2023-04-16T14:42:41.005Z,100346.81
2023-04-16T14:45:42.725Z,100339.00
2023-04-16T14:48:44.352Z,100324.78
2023-04-16T14:51:46.728Z,100347.22
2023-04-16T14:54:48.295Z,100340.00
2023-04-16T14:57:49.885Z,100338.41
2023-04-16T15:00:51.547Z,100328.56
2023-04-16T15:03:56.324Z,100310.22
2023-04-16T15:07:00.835Z,100321.38
2023-04-16T15:10:02.974Z,100320.09
2023-04-16T15:13:04.586Z,100304.16
2023-04-16T15:16:06.232Z,100312.84
2023-04-16T15:19:07.955Z,100324.69
2023-04-16T15:22:09.601Z,100335.53
2023-04-16T15:25:11.285Z,100343.19
2023-04-16T15:28:12.866Z,100336.19
2023-04-16T15:31:14.503Z,100327.88
2023-04-16T15:34:16.090Z,100349.44
2023-04-16T15:37:17.679Z,100316.75
2023-04-16T15:40:20.575Z,100339.25
2023-04-16T15:43:22.215Z,100332.34
2023-04-16T15:46:23.847Z,100352.66
2023-04-16T15:49:25.660Z,100355.16
2023-04-16T15:52:27.958Z,100352.19
2023-04-16T15:55:29.633Z,100356.31
2023-04-16T15:58:31.370Z,100354.81
2023-04-16T16:01:33.049Z,100350.59
2023-04-16T16:04:34.891Z,100350.50
2023-04-16T16:07:36.923Z,100337.09
2023-04-16T16:10:39.055Z,100321.22
2023-04-16T16:13:41.729Z,100350.16
2023-04-16T16:16:43.303Z,100349.94
2023-04-16T16:19:46.481Z,100329.91
2023-04-16T16:22:48.404Z,100349.59
2023-04-16T16:25:51.483Z,100354.56
2023-04-16T16:28:53.307Z,100354.19
2023-04-16T16:31:54.926Z,100357.31
2023-04-16T16:34:57.713Z,100337.31
2023-04-16T16:37:59.484Z,100349.41
2023-04-16T16:41:01.158Z,100345.44
2023-04-16T16:44:02.755Z,100351.31
2023-04-16T16:47:04.521Z,100326.03
2023-04-16T16:50:06.859Z,100354.41
2023-04-16T16:53:08.534Z,100367.63
2023-04-16T16:56:10.145Z,100361.84
2023-04-16T16:59:11.940Z,100374.53
2023-04-16T17:02:15.104Z,100366.25
2023-04-16T17:05:18.597Z,100361.97
2023-04-16T17:08:20.210Z,100356.19
2023-04-16T17:11:21.803Z,100370.00
2023-04-16T17:14:24.430Z,100368.28
2023-04-16T17:17:27.133Z,100371.19
2023-04-16T17:20:28.796Z,100370.56
2023-04-16T17:23:30.473Z,100381.34
2023-04-16T17:26:32.109Z,100379.53
2023-04-16T17:29:33.737Z,100389.34
2023-04-16T17:32:35.819Z,100373.25
2023-04-16T17:35:39.989Z,100364.94
2023-04-16T17:38:44.285Z,100396.81
2023-04-16T17:41:46.560Z,100403.47
2023-04-16T17:44:48.154Z,100401.97
2023-04-16T17:47:49.792Z,100401.28
2023-04-16T17:50:51.386Z,100402.44
2023-04-16T17:53:53.588Z,100408.06
2023-04-16T17:56:55.202Z,100413.03
2023-04-16T17:59:57.046Z,100417.34
2023-04-16T18:02:59.782Z,100392.44
2023-04-16T18:06:01.573Z,100403.72
2023-04-16T18:09:05.787Z,100399.56
2023-04-16T18:12:07.949Z,100418.28
2023-04-16T18:15:10.379Z,100399.00
2023-04-16T18:18:11.974Z,100409.16
2023-04-16T18:21:13.628Z,100409.34
2023-04-16T18:24:15.908Z,100413.50
2023-04-16T18:27:17.492Z,100403.66
2023-04-16T18:30:25.201Z,100399.28
2023-04-16T18:33:49.988Z,100416.50
2023-04-16T18:36:49.658Z,100420.19
2023-04-16T18:39:51.307Z,100422.47
2023-04-16T18:42:52.897Z,100421.44
2023-04-16T18:45:54.567Z,100409.44
2023-04-16T18:48:56.286Z,100407.97
2023-04-16T18:51:57.881Z,100418.41
2023-04-16T18:54:59.471Z,100403.63
2023-04-16T18:58:01.088Z,100411.25
2023-04-16T19:01:03.026Z,100388.59
2023-04-16T19:04:04.838Z,100392.22
2023-04-16T19:07:06.438Z,100399.03
2023-04-16T19:10:08.645Z,100398.00
2023-04-16T19:13:10.258Z,100401.97
2023-04-16T19:16:12.351Z,100401.59
2023-04-16T19:19:14.098Z,100403.72
2023-04-16T19:22:15.663Z,100401.00
2023-04-16T19:25:17.332Z,100398.84
2023-04-16T19:28:19.101Z,100385.84
2023-04-16T19:31:20.966Z,100386.81
2023-04-16T19:34:22.554Z,100389.94
2023-04-16T19:37:24.122Z,100371.31
2023-04-16T19:40:25.923Z,100355.44
2023-04-16T19:43:30.752Z,100366.81
2023-04-16T19:46:32.740Z,100376.72
2023-04-16T19:49:34.595Z,100388.34
2023-04-16T19:52:38.869Z,100384.88
2023-04-16T19:55:41.618Z,100397.06
2023-04-16T19:58:43.244Z,100395.38
2023-04-16T20:01:45.013Z,100386.84
2023-04-16T20:04:48.490Z,100390.38
2023-04-16T20:07:52.496Z,100400.00
2023-04-16T20:10:54.555Z,100390.38
2023-04-16T20:14:00.156Z,100377.91
2023-04-16T20:17:01.983Z,100386.56
2023-04-16T20:20:07.325Z,100393.81
2023-04-16T20:23:08.858Z,100388.13
2023-04-16T20:26:13.465Z,100367.94
2023-04-16T20:29:15.167Z,100357.75
2023-04-16T20:32:16.798Z,100384.03
2023-04-16T20:35:18.358Z,100368.38
2023-04-16T20:38:23.934Z,100385.34
2023-04-16T20:41:25.615Z,100365.09
2023-04-16T20:44:33.304Z,100372.41
2023-04-16T20:47:35.029Z,100357.97
2023-04-16T20:50:36.928Z,100364.09
2023-04-16T20:53:38.504Z,100362.56
2023-04-16T20:56:40.162Z,100354.09
2023-04-16T20:59:41.743Z,100383.44
2023-04-16T21:02:43.817Z,100381.94
2023-04-16T21:05:50.066Z,100380.78
2023-04-16T21:08:51.827Z,100375.81
2023-04-16T21:11:56.603Z,100372.91
2023-04-16T21:14:58.286Z,100367.63
2023-04-16T21:17:59.896Z,100347.66
2023-04-16T21:21:01.651Z,100365.28
2023-04-16T21:24:03.338Z,100345.31
2023-04-16T21:27:04.930Z,100356.81
2023-04-16T21:30:07.287Z,100346.00
2023-04-16T21:33:08.929Z,100341.47
2023-04-16T21:36:11.477Z,100354.25
2023-04-16T21:39:14.209Z,100337.75
2023-04-16T21:42:16.040Z,100350.53
2023-04-16T21:45:17.636Z,100349.69
2023-04-16T21:48:20.041Z,100300.88
2023-04-16T21:51:28.973Z,100323.84
2023-04-16T21:54:30.657Z,100324.59
2023-04-16T21:57:32.334Z,100322.03
2023-04-16T22:00:34.193Z,100342.19
2023-04-16T22:03:40.051Z,100334.34
2023-04-16T22:06:43.076Z,100337.16
2023-04-16T22:09:44.605Z,100339.94
2023-04-16T22:12:46.620Z,100340.16
2023-04-16T22:15:48.306Z,100333.88
2023-04-16T22:18:49.973Z,100346.53
2023-04-16T22:21:51.506Z,100328.44
2023-04-16T22:24:53.469Z,100334.13
2023-04-16T22:27:55.568Z,100313.72
2023-04-16T22:30:57.410Z,100340.31
2023-04-16T22:33:59.819Z,100336.84
2023-04-16T22:37:03.131Z,100329.34
2023-04-16T22:40:08.403Z,100337.50
2023-04-16T22:43:09.938Z,100329.88
2023-04-16T22:46:11.895Z,100327.81
2023-04-16T22:49:13.979Z,100316.31
2023-04-16T22:52:16.179Z,100317.44
2023-04-16T22:55:17.811Z,100310.09
2023-04-16T22:58:19.360Z,100324.53
2023-04-16T23:01:21.130Z,100311.09
2023-04-16T23:04:22.922Z,100309.84
2023-04-16T23:07:24.575Z,100306.34
2023-04-16T23:10:26.107Z,100290.56
2023-04-16T23:13:27.744Z,100308.88
2023-04-16T23:16:29.324Z,100306.53
2023-04-16T23:19:31.773Z,100303.06
2023-04-16T23:22:33.366Z,100294.19
2023-04-16T23:25:34.951Z,100296.00
2023-04-16T23:28:36.522Z,100304.22
2023-04-16T23:31:38.130Z,100302.25
2023-04-16T23:34:39.706Z,100301.00
2023-04-16T23:37:41.296Z,100286.41
2023-04-16T23:40:42.903Z,100303.88
2023-04-16T23:43:44.451Z,100292.91
2023-04-16T23:46:46.211Z,100282.63
2023-04-16T23:49:47.817Z,100288.72
2023-04-16T23:52:49.416Z,100287.19
2023-04-16T23:55:51.351Z,100283.84
2023-04-16T23:58:52.916Z,100284.63
